Private Wetterstation Sandau
Wetterdaten: Sonntag, 09.12.2012
Datum Zeit Temp. A. Feuchte A. Luftdruck Regen Wind Richtung Richtung Taupunkt Windchill
09.12.2012 00:01 -2,7 C 91 % 1023,3 hPa 0,0 l/m 4,7 km/h (1 Bft) W 270 -4,0 C -4,5 C
09.12.2012 00:06 -2,7 C 91 % 1023,1 hPa 0,0 l/m 0,0 km/h (0 Bft) W 270 -4,0 C -2,7 C
09.12.2012 00:11 -2,7 C 91 % 1023,2 hPa 0,0 l/m 2,2 km/h (1 Bft) W 270 -4,0 C -2,7 C
09.12.2012 00:16 -2,7 C 91 % 1023,0 hPa 0,0 l/m 0,0 km/h (0 Bft) W 270 -4,0 C -2,7 C
09.12.2012 00:21 -2,7 C 91 % 1023,1 hPa 0,0 l/m 1,4 km/h (1 Bft) W 270 -4,0 C -2,7 C
09.12.2012 00:26 -2,6 C 91 % 1022,9 hPa 0,0 l/m 1,4 km/h (1 Bft) W 270 -3,9 C -2,6 C
09.12.2012 00:31 -2,6 C 91 % 1023,1 hPa 0,0 l/m 0,0 km/h (0 Bft) W 270 -3,9 C -2,6 C
09.12.2012 00:36 -2,6 C 91 % 1022,8 hPa 0,0 l/m 0,0 km/h (0 Bft) W 270 -3,9 C -2,6 C
09.12.2012 00:41 -2,6 C 91 % 1022,9 hPa 0,0 l/m 0,0 km/h (0 Bft) W 270 -3,9 C -2,6 C
09.12.2012 00:46 -2,6 C 91 % 1022,7 hPa 0,0 l/m 0,0 km/h (0 Bft) O-SO 112 -3,9 C -2,6 C
09.12.2012 00:51 -2,7 C 91 % 1022,5 hPa 0,0 l/m 1,8 km/h (1 Bft) S-SO 157 -4,0 C -2,7 C
09.12.2012 00:56 -2,7 C 91 % 1022,7 hPa 0,0 l/m 0,0 km/h (0 Bft) S-SO 157 -4,0 C -2,7 C
09.12.2012 01:01 -2,7 C 91 % 1022,5 hPa 0,0 l/m 0,0 km/h (0 Bft) SO 135 -4,0 C -2,7 C
09.12.2012 01:06 -2,8 C 91 % 1022,5 hPa 0,0 l/m 3,2 km/h (1 Bft) S-SO 157 -4,1 C -2,8 C
09.12.2012 01:11 -2,8 C 91 % 1022,4 hPa 0,0 l/m 1,1 km/h (1 Bft) S-SO 157 -4,1 C -2,8 C
09.12.2012 01:16 -2,8 C 91 % 1022,6 hPa 0,0 l/m 2,5 km/h (1 Bft) W 270 -4,1 C -2,8 C
09.12.2012 01:21 -2,8 C 91 % 1022,6 hPa 0,0 l/m 3,2 km/h (1 Bft) W-SW 247 -4,1 C -2,8 C
09.12.2012 01:26 -2,8 C 91 % 1022,2 hPa 0,0 l/m 0,0 km/h (0 Bft) W-SW 247 -4,1 C -2,8 C
09.12.2012 01:31 -2,8 C 91 % 1022,5 hPa 0,0 l/m 2,9 km/h (1 Bft) W-SW 247 -4,1 C -2,8 C
09.12.2012 01:36 -2,7 C 91 % 1022,4 hPa 0,0 l/m 0,0 km/h (0 Bft) W-SW 247 -4,0 C -2,7 C
09.12.2012 01:41 -2,7 C 91 % 1022,2 hPa 0,0 l/m 0,0 km/h (0 Bft) S-SW 202 -4,0 C -2,7 C
09.12.2012 01:46 -2,7 C 91 % 1022,3 hPa 0,0 l/m 3,6 km/h (1 Bft) SW 225 -4,0 C -2,7 C
09.12.2012 01:51 -2,7 C 91 % 1022,3 hPa 0,0 l/m 2,9 km/h (1 Bft) SW 225 -4,0 C -2,7 C
09.12.2012 01:56 -2,7 C 91 % 1022,2 hPa 0,0 l/m 2,5 km/h (1 Bft) S-SO 157 -4,0 C -2,7 C
09.12.2012 02:01 -2,6 C 91 % 1022,2 hPa 0,0 l/m 2,5 km/h (1 Bft) S 180 -3,9 C -2,6 C
09.12.2012 02:06 -2,6 C 91 % 1022,2 hPa 0,0 l/m 0,0 km/h (0 Bft) S-SW 202 -3,9 C -2,6 C
09.12.2012 02:11 -2,6 C 91 % 1022,2 hPa 0,0 l/m 4,3 km/h (1 Bft) W-SW 247 -3,9 C -2,6 C
09.12.2012 02:16 -2,5 C 91 % 1022,1 hPa 0,0 l/m 5,0 km/h (1 Bft) S 180 -3,8 C -4,4 C
09.12.2012 02:21 -2,5 C 91 % 1022,2 hPa 0,0 l/m 4,0 km/h (1 Bft) W-SW 247 -3,8 C -2,5 C
09.12.2012 02:26 -2,5 C 91 % 1022,2 hPa 0,0 l/m 2,5 km/h (1 Bft) W-SW 247 -3,8 C -2,5 C
09.12.2012 02:31 -2,5 C 91 % 1022,0 hPa 0,0 l/m 4,0 km/h (1 Bft) S-SW 202 -3,8 C -2,5 C
09.12.2012 02:36 -2,5 C 91 % 1022,1 hPa 0,0 l/m 4,0 km/h (1 Bft) S-SW 202 -3,8 C -2,5 C
09.12.2012 02:41 -2,4 C 91 % 1022,0 hPa 0,0 l/m 5,0 km/h (1 Bft) S 180 -3,7 C -4,3 C
09.12.2012 02:46 -2,4 C 91 % 1021,9 hPa 0,0 l/m 5,0 km/h (1 Bft) S 180 -3,7 C -4,3 C
09.12.2012 02:51 -2,4 C 91 % 1021,8 hPa 0,0 l/m 5,4 km/h (1 Bft) S 180 -3,7 C -4,5 C
09.12.2012 02:56 -2,4 C 91 % 1021,7 hPa 0,0 l/m 6,5 km/h (2 Bft) S-SW 202 -3,7 C -5,0 C
09.12.2012 03:01 -2,4 C 91 % 1021,8 hPa 0,0 l/m 3,6 km/h (1 Bft) S-SW 202 -3,7 C -2,4 C
09.12.2012 03:06 -2,4 C 91 % 1021,7 hPa 0,0 l/m 0,0 km/h (0 Bft) SO 135 -3,7 C -2,4 C
09.12.2012 03:11 -2,4 C 91 % 1021,5 hPa 0,0 l/m 4,0 km/h (1 Bft) SO 135 -3,7 C -2,4 C
09.12.2012 03:16 -2,4 C 91 % 1021,4 hPa 0,0 l/m 2,5 km/h (1 Bft) SO 135 -3,7 C -2,4 C
09.12.2012 03:21 -2,4 C 91 % 1021,3 hPa 0,0 l/m 7,9 km/h (2 Bft) S-SO 157 -3,7 C -5,5 C
09.12.2012 03:26 -2,4 C 91 % 1021,3 hPa 0,0 l/m 4,7 km/h (1 Bft) S 180 -3,7 C -4,2 C
09.12.2012 03:31 -2,4 C 91 % 1021,2 hPa 0,0 l/m 1,1 km/h (1 Bft) S-SO 157 -3,7 C -2,4 C
09.12.2012 03:36 -2,4 C 91 % 1021,0 hPa 0,0 l/m 1,1 km/h (1 Bft) S 180 -3,7 C -2,4 C
09.12.2012 03:41 -2,4 C 91 % 1021,0 hPa 0,0 l/m 1,1 km/h (1 Bft) S 180 -3,7 C -2,4 C
09.12.2012 03:46 -2,4 C 91 % 1020,9 hPa 0,0 l/m 4,3 km/h (1 Bft) S-SO 157 -3,7 C -2,4 C
09.12.2012 03:51 -2,4 C 91 % 1020,9 hPa 0,0 l/m 3,2 km/h (1 Bft) SW 225 -3,7 C -2,4 C
09.12.2012 03:56 -2,5 C 91 % 1020,8 hPa 0,0 l/m 2,5 km/h (1 Bft) S-SO 157 -3,8 C -2,5 C
09.12.2012 04:01 -2,5 C 91 % 1020,4 hPa 0,0 l/m 5,8 km/h (2 Bft) SO 135 -3,8 C -4,8 C
09.12.2012 04:06 -2,5 C 91 % 1020,3 hPa 0,0 l/m 4,0 km/h (1 Bft) S-SW 202 -3,8 C -2,5 C
09.12.2012 04:11 -2,6 C 91 % 1020,1 hPa 0,0 l/m 4,7 km/h (1 Bft) S 180 -3,9 C -4,4 C
09.12.2012 04:16 -2,6 C 91 % 1020,1 hPa 0,0 l/m 8,6 km/h (2 Bft) S-SW 202 -3,9 C -6,0 C
09.12.2012 04:21 -2,6 C 91 % 1019,9 hPa 0,0 l/m 8,3 km/h (2 Bft) S 180 -3,9 C -5,9 C
09.12.2012 04:26 -2,6 C 91 % 1019,7 hPa 0,0 l/m 2,9 km/h (1 Bft) S-SW 202 -3,9 C -2,6 C
09.12.2012 04:31 -2,6 C 91 % 1019,7 hPa 0,0 l/m 6,1 km/h (2 Bft) S-SW 202 -3,9 C -5,1 C
09.12.2012 04:36 -2,6 C 91 % 1019,6 hPa 0,0 l/m 6,8 km/h (2 Bft) S-SW 202 -3,9 C -5,3 C
09.12.2012 04:41 -2,5 C 91 % 1019,6 hPa 0,0 l/m 4,0 km/h (1 Bft) SW 225 -3,8 C -2,5 C
09.12.2012 04:46 -2,5 C 91 % 1019,6 hPa 0,0 l/m 0,0 km/h (0 Bft) S-SW 202 -3,8 C -2,5 C
09.12.2012 04:51 -2,5 C 91 % 1019,4 hPa 0,0 l/m 14,8 km/h (3 Bft) S-SW 202 -3,8 C -7,5 C
09.12.2012 04:56 -2,5 C 91 % 1019,3 hPa 0,0 l/m 9,0 km/h (2 Bft) S-SW 202 -3,8 C -6,0 C
09.12.2012 05:01 -2,5 C 91 % 1019,3 hPa 0,0 l/m 7,2 km/h (2 Bft) S-SW 202 -3,8 C -5,4 C
09.12.2012 05:06 -2,5 C 91 % 1019,2 hPa 0,0 l/m 5,8 km/h (2 Bft) SW 225 -3,8 C -4,8 C
09.12.2012 05:11 -2,5 C 91 % 1019,2 hPa 0,0 l/m 7,6 km/h (2 Bft) W-SW 247 -3,8 C -5,5 C
09.12.2012 05:16 -2,5 C 91 % 1019,1 hPa 0,0 l/m 9,7 km/h (2 Bft) S-SO 157 -3,8 C -6,2 C
09.12.2012 05:21 -2,5 C 91 % 1019,0 hPa 0,0 l/m 2,9 km/h (1 Bft) W 270 -3,8 C -2,5 C
09.12.2012 05:26 -2,6 C 91 % 1019,0 hPa 0,0 l/m 9,4 km/h (2 Bft) S-SO 157 -3,9 C -6,2 C
09.12.2012 05:31 -2,6 C 91 % 1018,8 hPa 0,0 l/m 4,7 km/h (1 Bft) SW 225 -3,9 C -4,4 C
09.12.2012 05:36 -2,6 C 91 % 1018,6 hPa 0,0 l/m 3,2 km/h (1 Bft) S 180 -3,9 C -2,6 C
09.12.2012 05:41 -2,6 C 91 % 1018,5 hPa 0,0 l/m 4,0 km/h (1 Bft) S-SW 202 -3,9 C -2,6 C
09.12.2012 05:46 -2,6 C 91 % 1018,2 hPa 0,0 l/m 7,6 km/h (2 Bft) SW 225 -3,9 C -5,7 C
09.12.2012 05:51 -2,6 C 91 % 1018,2 hPa 0,0 l/m 10,1 km/h (2 Bft) SW 225 -3,9 C -6,4 C
09.12.2012 05:56 -2,6 C 91 % 1018,2 hPa 0,0 l/m 3,6 km/h (1 Bft) S 180 -3,9 C -2,6 C
09.12.2012 06:01 -2,6 C 91 % 1018,1 hPa 0,0 l/m 13,0 km/h (3 Bft) SW 225 -3,9 C -7,2 C
09.12.2012 06:06 -2,6 C 91 % 1017,8 hPa 0,0 l/m 5,8 km/h (2 Bft) W 270 -3,9 C -4,9 C
09.12.2012 06:11 -2,6 C 91 % 1017,8 hPa 0,0 l/m 4,7 km/h (1 Bft) SW 225 -3,9 C -4,4 C
09.12.2012 06:16 -2,7 C 91 % 1017,8 hPa 0,0 l/m 11,5 km/h (2 Bft) S 180 -4,0 C -6,9 C
09.12.2012 06:21 -2,7 C 91 % 1017,6 hPa 0,0 l/m 4,0 km/h (1 Bft) S-SO 157 -4,0 C -2,7 C
09.12.2012 06:26 -2,7 C 91 % 1017,5 hPa 0,0 l/m 7,6 km/h (2 Bft) SW 225 -4,0 C -5,8 C
09.12.2012 06:31 -2,7 C 91 % 1017,5 hPa 0,0 l/m 4,7 km/h (1 Bft) SW 225 -4,0 C -4,5 C
09.12.2012 06:36 -2,7 C 91 % 1017,4 hPa 0,0 l/m 5,4 km/h (1 Bft) S-SO 157 -4,0 C -4,9 C
09.12.2012 06:41 -2,7 C 91 % 1017,1 hPa 0,0 l/m 4,0 km/h (1 Bft) S-SW 202 -4,0 C -2,7 C
09.12.2012 06:46 -2,7 C 91 % 1017,1 hPa 0,0 l/m 13,3 km/h (3 Bft) S-SO 157 -4,0 C -7,4 C
09.12.2012 06:51 -2,7 C 91 % 1017,2 hPa 0,0 l/m 9,7 km/h (2 Bft) S-SO 157 -4,0 C -6,5 C
09.12.2012 06:56 -2,7 C 91 % 1017,0 hPa 0,0 l/m 10,4 km/h (2 Bft) SO 135 -4,0 C -6,7 C
09.12.2012 07:01 -2,7 C 91 % 1016,8 hPa 0,0 l/m 9,0 km/h (2 Bft) S-SO 157 -4,0 C -6,2 C
09.12.2012 07:06 -2,7 C 91 % 1016,7 hPa 0,0 l/m 9,4 km/h (2 Bft) S-SW 202 -4,0 C -6,4 C
09.12.2012 07:11 -2,7 C 91 % 1016,6 hPa 0,0 l/m 6,8 km/h (2 Bft) O-SO 112 -4,0 C -5,5 C
09.12.2012 07:16 -2,7 C 91 % 1016,4 hPa 0,0 l/m 7,6 km/h (2 Bft) S-SO 157 -4,0 C -5,8 C
09.12.2012 07:21 -2,7 C 91 % 1016,3 hPa 0,0 l/m 2,5 km/h (1 Bft) S-SO 157 -4,0 C -2,7 C
09.12.2012 07:26 -2,7 C 91 % 1016,3 hPa 0,0 l/m 14,0 km/h (3 Bft) SW 225 -4,0 C -7,5 C
09.12.2012 07:31 -2,7 C 91 % 1016,1 hPa 0,0 l/m 5,0 km/h (1 Bft) SW 225 -4,0 C -4,7 C
09.12.2012 07:36 -2,7 C 91 % 1015,8 hPa 0,0 l/m 11,9 km/h (2 Bft) SO 135 -4,0 C -7,0 C
09.12.2012 07:41 -2,7 C 91 % 1015,8 hPa 0,0 l/m 6,8 km/h (2 Bft) W-SW 247 -4,0 C -5,5 C
09.12.2012 07:46 -2,7 C 91 % 1015,6 hPa 0,0 l/m 6,1 km/h (2 Bft) SW 225 -4,0 C -5,2 C
09.12.2012 07:51 -2,7 C 91 % 1015,4 hPa 0,0 l/m 7,2 km/h (2 Bft) SW 225 -4,0 C -5,6 C
09.12.2012 07:56 -2,7 C 91 % 1015,2 hPa 0,0 l/m 5,8 km/h (2 Bft) S-SW 202 -4,0 C -5,0 C
09.12.2012 08:01 -2,8 C 91 % 1015,0 hPa 0,0 l/m 3,2 km/h (1 Bft) S-SW 202 -4,1 C -2,8 C
09.12.2012 08:06 -2,8 C 91 % 1014,9 hPa 0,0 l/m 22,3 km/h (4 Bft) S-SW 202 -4,1 C -9,1 C
09.12.2012 08:11 -2,8 C 91 % 1014,5 hPa 0,0 l/m 16,6 km/h (3 Bft) W-SW 247 -4,1 C -8,2 C
09.12.2012 08:16 -2,8 C 91 % 1014,5 hPa 0,0 l/m 9,0 km/h (2 Bft) S 180 -4,1 C -6,4 C
09.12.2012 08:21 -2,8 C 91 % 1014,4 hPa 0,0 l/m 9,4 km/h (2 Bft) W-SW 247 -4,1 C -6,5 C
09.12.2012 08:26 -2,7 C 91 % 1014,3 hPa 0,0 l/m 14,4 km/h (3 Bft) SW 225 -4,0 C -7,6 C
09.12.2012 08:31 -2,7 C 91 % 1014,0 hPa 0,0 l/m 9,4 km/h (2 Bft) S 180 -4,0 C -6,4 C
09.12.2012 08:36 -2,7 C 91 % 1013,8 hPa 0,0 l/m 6,5 km/h (2 Bft) SO 135 -4,0 C -5,3 C
09.12.2012 08:41 -2,7 C 91 % 1013,8 hPa 0,0 l/m 19,8 km/h (3 Bft) S-SW 202 -4,0 C -8,6 C
09.12.2012 08:46 -2,7 C 91 % 1013,6 hPa 0,0 l/m 11,9 km/h (2 Bft) SO 135 -4,0 C -7,0 C
09.12.2012 08:51 -2,7 C 91 % 1013,4 hPa 0,0 l/m 7,2 km/h (2 Bft) S-SW 202 -4,0 C -5,6 C
09.12.2012 08:56 -2,7 C 91 % 1013,3 hPa 0,0 l/m 10,4 km/h (2 Bft) S-SW 202 -4,0 C -6,7 C
09.12.2012 09:01 -2,6 C 91 % 1013,2 hPa 0,0 l/m 11,9 km/h (2 Bft) S 180 -3,9 C -6,9 C
09.12.2012 09:06 -2,6 C 91 % 1013,0 hPa 0,0 l/m 10,4 km/h (2 Bft) W-SW 247 -3,9 C -6,5 C
09.12.2012 09:11 -2,5 C 91 % 1012,9 hPa 0,0 l/m 12,2 km/h (2 Bft) W-SW 247 -3,8 C -6,9 C
09.12.2012 09:16 -2,5 C 91 % 1012,7 hPa 0,0 l/m 9,0 km/h (2 Bft) S 180 -3,8 C -6,0 C
09.12.2012 09:21 -2,4 C 91 % 1012,6 hPa 0,0 l/m 17,3 km/h (3 Bft) S-SW 202 -3,7 C -7,8 C
09.12.2012 09:26 -2,4 C 91 % 1012,2 hPa 0,0 l/m 9,4 km/h (2 Bft) S-SO 157 -3,7 C -6,0 C
09.12.2012 09:31 -2,3 C 91 % 1012,2 hPa 0,0 l/m 5,4 km/h (1 Bft) S-SW 202 -3,6 C -4,4 C
09.12.2012 09:36 -2,4 C 91 % 1012,0 hPa 0,0 l/m 9,4 km/h (2 Bft) S 180 -3,7 C -6,0 C
09.12.2012 09:41 -2,3 C 91 % 1012,0 hPa 0,0 l/m 10,8 km/h (2 Bft) S 180 -3,6 C -6,3 C
09.12.2012 09:46 -2,3 C 91 % 1011,7 hPa 0,0 l/m 10,1 km/h (2 Bft) S-SO 157 -3,6 C -6,1 C
09.12.2012 09:51 -2,2 C 91 % 1011,6 hPa 0,0 l/m 10,1 km/h (2 Bft) S-SO 157 -3,5 C -6,0 C
09.12.2012 09:56 -2,2 C 91 % 1011,4 hPa 0,0 l/m 8,3 km/h (2 Bft) S-SW 202 -3,5 C -5,4 C
09.12.2012 10:01 -2,2 C 91 % 1011,1 hPa 0,0 l/m 8,6 km/h (2 Bft) SW 225 -3,5 C -5,5 C
09.12.2012 10:06 -2,1 C 92 % 1011,0 hPa 0,0 l/m 6,8 km/h (2 Bft) N-NW 337 -3,2 C -4,8 C
09.12.2012 10:11 -2,1 C 92 % 1011,0 hPa 0,0 l/m 12,2 km/h (2 Bft) SW 225 -3,2 C -6,4 C
09.12.2012 10:16 -2,1 C 92 % 1010,8 hPa 0,0 l/m 26,6 km/h (4 Bft) S-SW 202 -3,2 C -8,8 C
09.12.2012 10:21 -2,1 C 92 % 1010,6 hPa 0,0 l/m 23,0 km/h (4 Bft) S-SW 202 -3,2 C -8,3 C
09.12.2012 10:26 -1,9 C 92 % 1010,6 hPa 0,0 l/m 15,5 km/h (3 Bft) S 180 -3,0 C -6,9 C
09.12.2012 10:31 -1,8 C 92 % 1010,5 hPa 0,0 l/m 20,9 km/h (4 Bft) S 180 -2,9 C -7,7 C
09.12.2012 10:36 -1,7 C 92 % 1010,3 hPa 0,0 l/m 17,3 km/h (3 Bft) SO 135 -2,8 C -6,9 C
09.12.2012 10:41 -1,7 C 92 % 1010,3 hPa 0,0 l/m 11,2 km/h (2 Bft) S-SW 202 -2,8 C -5,7 C
09.12.2012 10:46 -1,7 C 92 % 1010,2 hPa 0,0 l/m 18,0 km/h (3 Bft) S-SO 157 -2,8 C -7,1 C
09.12.2012 10:51 -1,7 C 92 % 1010,1 hPa 0,0 l/m 11,5 km/h (2 Bft) S 180 -2,8 C -5,7 C
09.12.2012 10:56 -1,7 C 92 % 1009,8 hPa 0,0 l/m 15,5 km/h (3 Bft) S 180 -2,8 C -6,6 C
09.12.2012 11:01 -1,7 C 92 % 1009,7 hPa 0,0 l/m 18,7 km/h (3 Bft) S-SW 202 -2,8 C -7,2 C
09.12.2012 11:06 -1,7 C 92 % 1009,5 hPa 0,0 l/m 19,4 km/h (3 Bft) SW 225 -2,8 C -7,3 C
09.12.2012 11:11 -1,6 C 92 % 1009,3 hPa 0,0 l/m 13,7 km/h (3 Bft) SW 225 -2,7 C -6,1 C
09.12.2012 11:16 -1,6 C 92 % 1009,2 hPa 0,0 l/m 11,9 km/h (2 Bft) S-SO 157 -2,7 C -5,7 C
09.12.2012 11:21 -1,5 C 92 % 1009,2 hPa 0,0 l/m 20,9 km/h (4 Bft) S 180 -2,6 C -7,3 C
09.12.2012 11:26 -1,5 C 92 % 1008,9 hPa 0,0 l/m 16,6 km/h (3 Bft) S 180 -2,6 C -6,6 C
09.12.2012 11:31 -1,5 C 92 % 1008,8 hPa 0,0 l/m 9,4 km/h (2 Bft) W-SW 247 -2,6 C -4,9 C
09.12.2012 11:36 -1,4 C 92 % 1008,7 hPa 0,0 l/m 13,3 km/h (3 Bft) SW 225 -2,5 C -5,8 C
09.12.2012 11:41 -1,4 C 92 % 1008,4 hPa 0,0 l/m 13,0 km/h (3 Bft) S-SW 202 -2,5 C -5,7 C
09.12.2012 11:46 -1,3 C 92 % 1008,3 hPa 0,0 l/m 14,8 km/h (3 Bft) SW 225 -2,4 C -6,0 C
09.12.2012 11:51 -1,2 C 92 % 1008,2 hPa 0,0 l/m 6,5 km/h (2 Bft) S-SW 202 -2,3 C -3,6 C
09.12.2012 11:56 -1,1 C 92 % 1008,0 hPa 0,0 l/m 15,5 km/h (3 Bft) S 180 -2,2 C -5,9 C
09.12.2012 12:01 -1,1 C 91 % 1007,9 hPa 0,0 l/m 18,4 km/h (3 Bft) S 180 -2,4 C -6,4 C
09.12.2012 12:06 -1,1 C 91 % 1007,9 hPa 0,0 l/m 9,7 km/h (2 Bft) S-SW 202 -2,4 C -4,5 C
09.12.2012 12:11 -1,1 C 91 % 1007,5 hPa 0,0 l/m 11,5 km/h (2 Bft) S-SW 202 -2,4 C -5,0 C
09.12.2012 12:16 -1,1 C 91 % 1007,4 hPa 0,0 l/m 4,0 km/h (1 Bft) SW 225 -2,4 C -1,1 C
09.12.2012 12:21 -1,1 C 91 % 1007,3 hPa 0,0 l/m 10,4 km/h (2 Bft) SW 225 -2,4 C -4,7 C
09.12.2012 12:26 -1,0 C 92 % 1007,3 hPa 0,0 l/m 6,1 km/h (2 Bft) W 270 -2,1 C -3,2 C
09.12.2012 12:31 -0,9 C 92 % 1007,1 hPa 0,0 l/m 8,3 km/h (2 Bft) S 180 -2,0 C -3,9 C
09.12.2012 12:36 -0,9 C 91 % 1007,0 hPa 0,0 l/m 11,5 km/h (2 Bft) S-SW 202 -2,2 C -4,8 C
09.12.2012 12:41 -0,8 C 91 % 1007,0 hPa 0,0 l/m 13,0 km/h (3 Bft) S-SO 157 -2,1 C -5,0 C
09.12.2012 12:46 -0,7 C 91 % 1007,0 hPa 0,0 l/m 8,3 km/h (2 Bft) S-SW 202 -2,0 C -3,7 C
09.12.2012 12:51 -0,7 C 91 % 1006,8 hPa 0,0 l/m 7,2 km/h (2 Bft) SW 225 -2,0 C -3,3 C
09.12.2012 12:56 -0,7 C 91 % 1006,6 hPa 0,0 l/m 8,6 km/h (2 Bft) W 270 -2,0 C -3,7 C
09.12.2012 13:01 -0,6 C 91 % 1006,6 hPa 0,0 l/m 5,8 km/h (2 Bft) S-SW 202 -1,9 C -2,6 C
09.12.2012 13:06 -0,6 C 91 % 1006,4 hPa 0,0 l/m 5,4 km/h (1 Bft) S 180 -1,9 C -2,5 C
09.12.2012 13:11 -0,5 C 91 % 1006,2 hPa 0,0 l/m 19,1 km/h (3 Bft) S 180 -1,8 C -5,7 C
09.12.2012 13:16 -0,5 C 91 % 1006,3 hPa 0,0 l/m 9,0 km/h (2 Bft) W 270 -1,8 C -3,6 C
09.12.2012 13:21 -0,5 C 91 % 1006,0 hPa 0,0 l/m 19,8 km/h (3 Bft) S-SW 202 -1,8 C -5,8 C
09.12.2012 13:26 -0,4 C 91 % 1006,0 hPa 0,0 l/m 15,1 km/h (3 Bft) W-SW 247 -1,7 C -4,9 C
09.12.2012 13:31 -0,4 C 90 % 1005,9 hPa 0,0 l/m 11,2 km/h (2 Bft) S-SW 202 -1,8 C -4,1 C
09.12.2012 13:36 -0,4 C 90 % 1005,9 hPa 0,0 l/m 13,0 km/h (3 Bft) SW 225 -1,8 C -4,5 C
09.12.2012 13:41 -0,4 C 90 % 1005,7 hPa 0,0 l/m 14,4 km/h (3 Bft) S-SW 202 -1,8 C -4,8 C
09.12.2012 13:46 -0,4 C 90 % 1005,5 hPa 0,0 l/m 6,8 km/h (2 Bft) SW 225 -1,8 C -2,8 C
09.12.2012 13:51 -0,4 C 91 % 1005,6 hPa 0,0 l/m 14,8 km/h (3 Bft) W-SW 247 -1,7 C -4,9 C
09.12.2012 13:56 -0,4 C 91 % 1005,3 hPa 0,0 l/m 11,2 km/h (2 Bft) SW 225 -1,7 C -4,1 C
09.12.2012 14:01 -0,2 C 91 % 1005,3 hPa 0,0 l/m 5,4 km/h (1 Bft) W-SW 247 -1,5 C -2,0 C
09.12.2012 14:06 -0,2 C 91 % 1005,2 hPa 0,0 l/m 16,9 km/h (3 Bft) SW 225 -1,5 C -5,0 C
09.12.2012 14:11 -0,2 C 91 % 1005,2 hPa 0,0 l/m 13,0 km/h (3 Bft) W-SW 247 -1,5 C -4,3 C
09.12.2012 14:16 -0,1 C 91 % 1005,1 hPa 0,0 l/m 8,6 km/h (2 Bft) S-SW 202 -1,4 C -3,0 C
09.12.2012 14:21 -0,1 C 91 % 1005,0 hPa 0,0 l/m 7,6 km/h (2 Bft) S-SW 202 -1,4 C -2,7 C
09.12.2012 14:26 -0,1 C 91 % 1004,7 hPa 0,0 l/m 19,8 km/h (3 Bft) W-SW 247 -1,4 C -5,3 C
09.12.2012 14:31 -0,1 C 91 % 1004,9 hPa 0,0 l/m 8,3 km/h (2 Bft) S-SW 202 -1,4 C -2,9 C
09.12.2012 14:36 0,1 C 91 % 1004,9 hPa 0,0 l/m 15,8 km/h (3 Bft) SW 225 -1,2 C -4,4 C
09.12.2012 14:41 0,2 C 91 % 1004,6 hPa 0,0 l/m 18,7 km/h (3 Bft) W-SW 247 -1,1 C -4,8 C
09.12.2012 14:46 0,4 C 91 % 1004,5 hPa 0,0 l/m 27,4 km/h (4 Bft) W-SW 247 -0,9 C -5,7 C
09.12.2012 14:51 0,5 C 92 % 1004,5 hPa 0,0 l/m 22,3 km/h (4 Bft) W-SW 247 -0,6 C -4,9 C
09.12.2012 14:56 0,6 C 91 % 1004,5 hPa 0,0 l/m 19,4 km/h (3 Bft) W 270 -0,7 C -4,4 C
09.12.2012 15:01 0,7 C 91 % 1004,4 hPa 0,0 l/m 11,2 km/h (2 Bft) W-SW 247 -0,6 C -2,8 C
09.12.2012 15:06 0,8 C 91 % 1004,4 hPa 0,0 l/m 16,6 km/h (3 Bft) W 270 -0,5 C -3,7 C
09.12.2012 15:11 0,8 C 91 % 1004,4 hPa 0,0 l/m 5,8 km/h (2 Bft) S 180 -0,5 C -1,0 C
09.12.2012 15:16 0,9 C 91 % 1004,4 hPa 0,0 l/m 16,9 km/h (3 Bft) SW 225 -0,4 C -3,6 C
09.12.2012 15:21 0,9 C 91 % 1004,5 hPa 0,0 l/m 18,0 km/h (3 Bft) W-SW 247 -0,4 C -3,8 C
09.12.2012 15:26 0,9 C 91 % 1004,4 hPa 0,0 l/m 7,6 km/h (2 Bft) W-SW 247 -0,4 C -1,6 C
09.12.2012 15:31 1,0 C 91 % 1004,4 hPa 0,0 l/m 12,2 km/h (2 Bft) W-SW 247 -0,3 C -2,6 C
09.12.2012 15:36 1,0 C 91 % 1004,4 hPa 0,0 l/m 17,6 km/h (3 Bft) SW 225 -0,3 C -3,6 C
09.12.2012 15:41 1,1 C 91 % 1004,2 hPa 0,0 l/m 14,8 km/h (3 Bft) SW 225 -0,2 C -3,0 C
09.12.2012 15:46 1,1 C 91 % 1004,3 hPa 0,0 l/m 7,6 km/h (2 Bft) W-SW 247 -0,2 C -1,3 C
09.12.2012 15:51 1,1 C 91 % 1004,1 hPa 0,0 l/m 10,1 km/h (2 Bft) SW 225 -0,2 C -2,0 C
09.12.2012 15:56 1,1 C 91 % 1004,1 hPa 0,0 l/m 14,0 km/h (3 Bft) S-SW 202 -0,2 C -2,9 C
09.12.2012 16:01 1,1 C 91 % 1004,0 hPa 0,0 l/m 16,9 km/h (3 Bft) W-SW 247 -0,2 C -3,4 C
09.12.2012 16:06 1,1 C 91 % 1004,2 hPa 0,0 l/m 16,9 km/h (3 Bft) S-SW 202 -0,2 C -3,4 C
09.12.2012 16:11 1,2 C 91 % 1004,1 hPa 0,0 l/m 20,9 km/h (4 Bft) W-SW 247 -0,1 C -3,9 C
09.12.2012 16:16 1,2 C 91 % 1004,0 hPa 0,0 l/m 16,2 km/h (3 Bft) W 270 -0,1 C -3,1 C
09.12.2012 16:21 1,2 C 91 % 1003,9 hPa 0,0 l/m 7,9 km/h (2 Bft) W-SW 247 -0,1 C -1,3 C
09.12.2012 16:26 1,3 C 91 % 1003,9 hPa 0,0 l/m 15,1 km/h (3 Bft) W 270 -0,0 C -2,8 C
09.12.2012 16:31 1,3 C 91 % 1003,8 hPa 0,0 l/m 18,0 km/h (3 Bft) W 270 -0,0 C -3,3 C
09.12.2012 16:36 1,3 C 91 % 1003,9 hPa 0,0 l/m 11,5 km/h (2 Bft) S-SW 202 -0,0 C -2,1 C
09.12.2012 16:41 1,3 C 91 % 1003,8 hPa 0,0 l/m 16,2 km/h (3 Bft) W-SW 247 -0,0 C -3,0 C
09.12.2012 16:46 1,3 C 91 % 1003,7 hPa 0,0 l/m 12,6 km/h (3 Bft) W-SW 247 -0,0 C -2,4 C
09.12.2012 16:51 1,3 C 91 % 1003,7 hPa 0,0 l/m 11,9 km/h (2 Bft) S-SW 202 -0,0 C -2,2 C
09.12.2012 16:56 1,3 C 91 % 1003,6 hPa 0,0 l/m 8,3 km/h (2 Bft) S-SW 202 -0,0 C -1,3 C
09.12.2012 17:01 1,3 C 91 % 1003,5 hPa 0,0 l/m 14,4 km/h (3 Bft) W-SW 247 -0,0 C -2,7 C
09.12.2012 17:06 1,3 C 91 % 1003,6 hPa 0,0 l/m 8,6 km/h (2 Bft) S-SW 202 -0,0 C -1,4 C
09.12.2012 17:11 1,3 C 91 % 1003,7 hPa 0,0 l/m 19,1 km/h (3 Bft) W-SW 247 -0,0 C -3,5 C
09.12.2012 17:16 1,3 C 91 % 1003,5 hPa 0,0 l/m 12,2 km/h (2 Bft) W-SW 247 -0,0 C -2,3 C
09.12.2012 17:21 1,3 C 91 % 1003,4 hPa 0,0 l/m 5,8 km/h (2 Bft) SW 225 -0,0 C -0,5 C
09.12.2012 17:26 1,3 C 91 % 1003,4 hPa 0,0 l/m 15,8 km/h (3 Bft) SW 225 -0,0 C -3,0 C
09.12.2012 17:31 1,3 C 91 % 1003,4 hPa 0,0 l/m 13,0 km/h (3 Bft) SW 225 -0,0 C -2,4 C
09.12.2012 17:36 1,3 C 91 % 1003,4 hPa 0,0 l/m 16,6 km/h (3 Bft) W-SW 247 -0,0 C -3,1 C
09.12.2012 17:41 1,3 C 91 % 1003,3 hPa 0,0 l/m 15,8 km/h (3 Bft) S-SW 202 -0,0 C -3,0 C
09.12.2012 17:46 1,3 C 91 % 1003,3 hPa 0,0 l/m 7,2 km/h (2 Bft) W-SW 247 -0,0 C -1,0 C
09.12.2012 17:51 1,3 C 91 % 1003,2 hPa 0,0 l/m 12,6 km/h (3 Bft) S-SW 202 -0,0 C -2,4 C
09.12.2012 17:56 1,3 C 91 % 1003,3 hPa 0,0 l/m 9,4 km/h (2 Bft) W 270 -0,0 C -1,6 C
09.12.2012 18:01 1,3 C 91 % 1003,2 hPa 0,0 l/m 9,7 km/h (2 Bft) SW 225 -0,0 C -1,7 C
09.12.2012 18:06 1,3 C 91 % 1003,2 hPa 0,0 l/m 7,2 km/h (2 Bft) S-SW 202 -0,0 C -1,0 C
09.12.2012 18:11 1,3 C 91 % 1003,1 hPa 0,0 l/m 11,9 km/h (2 Bft) SW 225 -0,0 C -2,2 C
09.12.2012 18:16 1,3 C 91 % 1003,1 hPa 0,0 l/m 5,8 km/h (2 Bft) SW 225 -0,0 C -0,5 C
09.12.2012 18:21 1,3 C 91 % 1002,8 hPa 0,0 l/m 20,5 km/h (4 Bft) SW 225 -0,0 C -3,7 C
09.12.2012 18:26 1,3 C 91 % 1002,9 hPa 0,0 l/m 10,1 km/h (2 Bft) SW 225 -0,0 C -1,8 C
09.12.2012 18:31 1,3 C 91 % 1002,9 hPa 0,0 l/m 9,7 km/h (2 Bft) W 270 -0,0 C -1,7 C
09.12.2012 18:36 1,3 C 91 % 1002,7 hPa 0,0 l/m 8,6 km/h (2 Bft) S-SW 202 -0,0 C -1,4 C
09.12.2012 18:41 1,3 C 91 % 1002,7 hPa 0,0 l/m 7,9 km/h (2 Bft) W-SW 247 -0,0 C -1,2 C
09.12.2012 18:46 1,3 C 91 % 1002,7 hPa 0,0 l/m 11,2 km/h (2 Bft) W-SW 247 -0,0 C -2,0 C
09.12.2012 18:51 1,4 C 91 % 1002,6 hPa 0,0 l/m 12,6 km/h (3 Bft) W-SW 247 0,1 C -2,2 C
09.12.2012 18:56 1,4 C 91 % 1002,6 hPa 0,0 l/m 8,3 km/h (2 Bft) SW 225 0,1 C -1,2 C
09.12.2012 19:01 1,4 C 91 % 1002,6 hPa 0,0 l/m 20,9 km/h (4 Bft) W 270 0,1 C -3,6 C
09.12.2012 19:06 1,5 C 92 % 1002,6 hPa 0,0 l/m 13,3 km/h (3 Bft) W 270 0,3 C -2,2 C
09.12.2012 19:11 1,6 C 92 % 1002,6 hPa 0,0 l/m 16,6 km/h (3 Bft) SW 225 0,4 C -2,7 C
09.12.2012 19:16 1,6 C 92 % 1002,4 hPa 0,0 l/m 10,4 km/h (2 Bft) W 270 0,4 C -1,5 C
09.12.2012 19:21 1,6 C 92 % 1002,4 hPa 0,0 l/m 5,0 km/h (1 Bft) S-SW 202 0,4 C 0,2 C
09.12.2012 19:26 1,6 C 92 % 1002,4 hPa 0,0 l/m 15,1 km/h (3 Bft) SW 225 0,4 C -2,5 C
09.12.2012 19:31 1,7 C 92 % 1002,2 hPa 0,0 l/m 9,4 km/h (2 Bft) S-SW 202 0,5 C -1,1 C
09.12.2012 19:36 1,7 C 92 % 1002,2 hPa 0,0 l/m 9,4 km/h (2 Bft) W-SW 247 0,5 C -1,1 C
09.12.2012 19:41 1,8 C 92 % 1002,2 hPa 0,0 l/m 25,2 km/h (4 Bft) SW 225 0,6 C -3,6 C
09.12.2012 19:46 1,8 C 92 % 1002,3 hPa 0,0 l/m 6,8 km/h (2 Bft) W-SW 247 0,6 C -0,2 C
09.12.2012 19:51 1,8 C 92 % 1002,3 hPa 0,0 l/m 9,7 km/h (2 Bft) W-SW 247 0,6 C -1,1 C
09.12.2012 19:56 1,8 C 92 % 1002,3 hPa 0,0 l/m 11,2 km/h (2 Bft) S-SW 202 0,6 C -1,4 C
09.12.2012 20:01 1,8 C 92 % 1002,2 hPa 0,0 l/m 13,0 km/h (3 Bft) W 270 0,6 C -1,8 C
09.12.2012 20:06 1,8 C 91 % 1002,1 hPa 0,0 l/m 9,7 km/h (2 Bft) W-SW 247 0,5 C -1,1 C
09.12.2012 20:11 1,8 C 91 % 1002,3 hPa 0,0 l/m 8,3 km/h (2 Bft) SW 225 0,5 C -0,7 C
09.12.2012 20:16 1,8 C 91 % 1002,2 hPa 0,0 l/m 7,6 km/h (2 Bft) SW 225 0,5 C -0,5 C
09.12.2012 20:21 1,8 C 91 % 1002,2 hPa 0,0 l/m 7,9 km/h (2 Bft) SW 225 0,5 C -0,6 C
09.12.2012 20:26 1,8 C 91 % 1002,1 hPa 0,0 l/m 9,7 km/h (2 Bft) W-SW 247 0,5 C -1,1 C
09.12.2012 20:31 1,8 C 91 % 1002,2 hPa 0,0 l/m 6,1 km/h (2 Bft) W-SW 247 0,5 C 0,0 C
09.12.2012 20:36 1,8 C 91 % 1001,9 hPa 0,0 l/m 15,1 km/h (3 Bft) SW 225 0,5 C -2,2 C
09.12.2012 20:41 1,7 C 91 % 1001,8 hPa 0,0 l/m 11,9 km/h (2 Bft) W 270 0,4 C -1,7 C
09.12.2012 20:46 1,6 C 91 % 1001,9 hPa 0,0 l/m 9,7 km/h (2 Bft) W-SW 247 0,3 C -1,3 C
09.12.2012 20:51 1,6 C 92 % 1001,8 hPa 0,0 l/m 9,4 km/h (2 Bft) W-SW 247 0,4 C -1,3 C
09.12.2012 20:56 1,6 C 92 % 1001,7 hPa 0,0 l/m 6,8 km/h (2 Bft) SW 225 0,4 C -0,5 C
09.12.2012 21:01 1,6 C 92 % 1001,9 hPa 0,0 l/m 11,2 km/h (2 Bft) S 180 0,4 C -1,7 C
09.12.2012 21:06 1,6 C 92 % 1001,9 hPa 0,0 l/m 11,5 km/h (2 Bft) S-SW 202 0,4 C -1,8 C
09.12.2012 21:11 1,6 C 92 % 1001,8 hPa 0,0 l/m 7,6 km/h (2 Bft) W-SW 247 0,4 C -0,7 C
09.12.2012 21:16 1,6 C 92 % 1002,1 hPa 0,0 l/m 15,5 km/h (3 Bft) W 270 0,4 C -2,5 C
09.12.2012 21:21 1,6 C 92 % 1002,0 hPa 0,0 l/m 10,1 km/h (2 Bft) SW 225 0,4 C -1,4 C
09.12.2012 21:26 1,6 C 92 % 1001,9 hPa 0,0 l/m 3,2 km/h (1 Bft) S-SW 202 0,4 C 1,6 C
09.12.2012 21:31 1,6 C 92 % 1001,7 hPa 0,0 l/m 8,6 km/h (2 Bft) SW 225 0,4 C -1,0 C
09.12.2012 21:36 1,6 C 92 % 1001,6 hPa 0,0 l/m 14,0 km/h (3 Bft) S-SW 202 0,4 C -2,3 C
09.12.2012 21:41 1,6 C 92 % 1001,7 hPa 0,0 l/m 7,2 km/h (2 Bft) W-SW 247 0,4 C -0,6 C
09.12.2012 21:46 1,6 C 92 % 1001,6 hPa 0,0 l/m 13,7 km/h (3 Bft) W-SW 247 0,4 C -2,2 C
09.12.2012 21:51 1,6 C 92 % 1001,5 hPa 0,0 l/m 10,8 km/h (2 Bft) S-SW 202 0,4 C -1,6 C
09.12.2012 21:56 1,6 C 92 % 1001,7 hPa 0,0 l/m 7,6 km/h (2 Bft) S-SW 202 0,4 C -0,7 C
09.12.2012 22:01 1,6 C 92 % 1001,6 hPa 0,0 l/m 6,8 km/h (2 Bft) SW 225 0,4 C -0,5 C
09.12.2012 22:06 1,6 C 92 % 1001,4 hPa 0,0 l/m 8,3 km/h (2 Bft) SW 225 0,4 C -0,9 C
09.12.2012 22:11 1,6 C 92 % 1001,3 hPa 0,0 l/m 8,3 km/h (2 Bft) S 180 0,4 C -0,9 C
09.12.2012 22:16 1,6 C 92 % 1001,4 hPa 0,0 l/m 12,6 km/h (3 Bft) SW 225 0,4 C -2,0 C
09.12.2012 22:21 1,6 C 92 % 1001,3 hPa 0,0 l/m 8,3 km/h (2 Bft) SW 225 0,4 C -0,9 C
09.12.2012 22:26 1,6 C 92 % 1001,3 hPa 0,0 l/m 4,3 km/h (1 Bft) S-SW 202 0,4 C 1,6 C
09.12.2012 22:31 1,6 C 92 % 1001,4 hPa 0,0 l/m 13,0 km/h (3 Bft) SW 225 0,4 C -2,1 C
09.12.2012 22:36 1,6 C 92 % 1001,2 hPa 0,0 l/m 4,7 km/h (1 Bft) SW 225 0,4 C 0,4 C
09.12.2012 22:41 1,5 C 92 % 1001,1 hPa 0,0 l/m 6,1 km/h (2 Bft) W 270 0,3 C -0,3 C
09.12.2012 22:46 1,4 C 92 % 1001,3 hPa 0,0 l/m 5,8 km/h (2 Bft) W-SW 247 0,2 C -0,3 C
09.12.2012 22:51 1,4 C 92 % 1001,0 hPa 0,0 l/m 5,8 km/h (2 Bft) SW 225 0,2 C -0,3 C
09.12.2012 22:56 1,4 C 92 % 1001,0 hPa 0,0 l/m 9,0 km/h (2 Bft) W-SW 247 0,2 C -1,4 C
09.12.2012 23:01 1,4 C 92 % 1001,1 hPa 0,0 l/m 4,7 km/h (1 Bft) S-SW 202 0,2 C 0,1 C
09.12.2012 23:06 1,4 C 92 % 1001,0 hPa 0,0 l/m 10,1 km/h (2 Bft) W 270 0,2 C -1,7 C
09.12.2012 23:11 1,4 C 92 % 1000,9 hPa 0,0 l/m 7,2 km/h (2 Bft) S 180 0,2 C -0,8 C
09.12.2012 23:16 1,4 C 92 % 1000,8 hPa 0,0 l/m 6,1 km/h (2 Bft) W-SW 247 0,2 C -0,5 C
09.12.2012 23:21 1,4 C 92 % 1000,8 hPa 0,0 l/m 5,0 km/h (1 Bft) S-SO 157 0,2 C -0,0 C
09.12.2012 23:26 1,3 C 92 % 1000,8 hPa 0,0 l/m 6,5 km/h (2 Bft) SW 225 0,1 C -0,7 C
09.12.2012 23:31 1,3 C 92 % 1000,7 hPa 0,0 l/m 3,6 km/h (1 Bft) SW 225 0,1 C 1,3 C
09.12.2012 23:36 1,3 C 92 % 1000,6 hPa 0,0 l/m 2,5 km/h (1 Bft) S 180 0,1 C 1,3 C
09.12.2012 23:41 1,3 C 92 % 1000,6 hPa 0,0 l/m 9,7 km/h (2 Bft) S-SW 202 0,1 C -1,7 C
09.12.2012 23:46 1,2 C 92 % 1000,7 hPa 0,0 l/m 7,2 km/h (2 Bft) S 180 0,0 C -1,1 C
09.12.2012 23:51 1,0 C 92 % 1000,4 hPa 0,0 l/m 6,1 km/h (2 Bft) SO 135 -0,2 C -0,9 C
09.12.2012 23:56 0,9 C 92 % 1000,3 hPa 0,0 l/m 9,0 km/h (2 Bft) S-SO 157 -0,2 C -2,0 C
_ Min-Zeit 01:06 13:31 23:56 - 00:06 - - 01:06 08:06
Minimum _ -2,8 C 90 % 1000,3 hPa - 0,0 km/h (0 Bft) - - -4,1 C -9,1 C
_ Max-Zeit 19:41 10:06 00:01 00:01 14:46 - - 19:41 21:26
Maximum _ 1,8 C 92 % 1023,3 hPa 0,0 l/m 27,4 km/h
W-SW (4 Bft)
- - 0,6 C 1,6 C
Durchschnitt _ -0,7 C 91 % 1010,3 hPa #0,0 l/m 9,3 km/h (2 Bft) SW - -2,0 C -3,5 C
(c) by David Heller